sensor_id;sensor_type;location;lat;lon;timestamp;P1;durP1;ratioP1;P2;durP2;ratioP2
52858;SDS011;38721;53.098;6.596;2023-02-22T00:00:24;73.88;;;26.98;;
52858;SDS011;38721;53.098;6.596;2023-02-22T00:03:04;77.78;;;27.40;;
52858;SDS011;38721;53.098;6.596;2023-02-22T00:05:34;71.68;;;27.08;;
52858;SDS011;38721;53.098;6.596;2023-02-22T00:08:03;80.68;;;26.17;;
52858;SDS011;38721;53.098;6.596;2023-02-22T00:10:33;73.97;;;26.50;;
52858;SDS011;38721;53.098;6.596;2023-02-22T00:13:03;78.18;;;27.25;;
52858;SDS011;38721;53.098;6.596;2023-02-22T00:15:30;80.32;;;26.33;;
52858;SDS011;38721;53.098;6.596;2023-02-22T00:17:57;67.80;;;25.67;;
52858;SDS011;38721;53.098;6.596;2023-02-22T00:20:23;67.18;;;26.33;;
52858;SDS011;38721;53.098;6.596;2023-02-22T00:22:49;81.03;;;27.70;;
52858;SDS011;38721;53.098;6.596;2023-02-22T00:25:18;77.72;;;26.77;;
52858;SDS011;38721;53.098;6.596;2023-02-22T00:27:46;68.13;;;25.45;;
52858;SDS011;38721;53.098;6.596;2023-02-22T00:30:14;76.47;;;26.25;;
52858;SDS011;38721;53.098;6.596;2023-02-22T00:32:43;71.20;;;25.85;;
52858;SDS011;38721;53.098;6.596;2023-02-22T00:35:14;65.35;;;26.15;;
52858;SDS011;38721;53.098;6.596;2023-02-22T00:37:41;78.88;;;25.75;;
52858;SDS011;38721;53.098;6.596;2023-02-22T00:40:13;74.90;;;26.15;;
52858;SDS011;38721;53.098;6.596;2023-02-22T00:42:41;69.72;;;25.83;;
52858;SDS011;38721;53.098;6.596;2023-02-22T00:45:07;55.55;;;23.70;;
52858;SDS011;38721;53.098;6.596;2023-02-22T00:47:33;63.72;;;24.45;;
52858;SDS011;38721;53.098;6.596;2023-02-22T00:49:59;63.53;;;25.00;;
52858;SDS011;38721;53.098;6.596;2023-02-22T00:52:25;60.72;;;23.48;;
52858;SDS011;38721;53.098;6.596;2023-02-22T00:54:54;79.90;;;26.08;;
52858;SDS011;38721;53.098;6.596;2023-02-22T00:57:22;58.35;;;23.35;;
52858;SDS011;38721;53.098;6.596;2023-02-22T00:59:48;63.22;;;24.55;;
52858;SDS011;38721;53.098;6.596;2023-02-22T01:02:14;54.78;;;24.13;;
52858;SDS011;38721;53.098;6.596;2023-02-22T01:04:40;56.80;;;24.30;;
52858;SDS011;38721;53.098;6.596;2023-02-22T01:07:07;52.65;;;23.40;;
52858;SDS011;38721;53.098;6.596;2023-02-22T01:09:33;56.35;;;22.10;;
52858;SDS011;38721;53.098;6.596;2023-02-22T01:11:59;55.15;;;22.90;;
52858;SDS011;38721;53.098;6.596;2023-02-22T01:14:26;55.97;;;22.92;;
52858;SDS011;38721;53.098;6.596;2023-02-22T01:16:53;53.65;;;23.38;;
52858;SDS011;38721;53.098;6.596;2023-02-22T01:19:20;58.25;;;23.25;;
52858;SDS011;38721;53.098;6.596;2023-02-22T01:21:46;54.25;;;22.67;;
52858;SDS011;38721;53.098;6.596;2023-02-22T01:24:16;48.38;;;22.27;;
52858;SDS011;38721;53.098;6.596;2023-02-22T01:26:47;49.72;;;22.33;;
52858;SDS011;38721;53.098;6.596;2023-02-22T01:29:15;49.30;;;22.95;;
52858;SDS011;38721;53.098;6.596;2023-02-22T01:31:41;55.40;;;23.83;;
52858;SDS011;38721;53.098;6.596;2023-02-22T01:34:15;47.05;;;22.33;;
52858;SDS011;38721;53.098;6.596;2023-02-22T01:36:41;49.00;;;23.58;;
52858;SDS011;38721;53.098;6.596;2023-02-22T01:39:07;51.35;;;22.85;;
52858;SDS011;38721;53.098;6.596;2023-02-22T01:41:37;49.17;;;22.23;;
52858;SDS011;38721;53.098;6.596;2023-02-22T01:44:20;51.92;;;21.55;;
52858;SDS011;38721;53.098;6.596;2023-02-22T01:46:58;49.13;;;21.88;;
52858;SDS011;38721;53.098;6.596;2023-02-22T01:49:29;47.33;;;21.25;;
52858;SDS011;38721;53.098;6.596;2023-02-22T01:52:00;47.38;;;21.23;;
52858;SDS011;38721;53.098;6.596;2023-02-22T01:54:34;47.38;;;21.08;;
52858;SDS011;38721;53.098;6.596;2023-02-22T01:57:28;41.10;;;20.02;;
52858;SDS011;38721;53.098;6.596;2023-02-22T02:00:00;44.33;;;19.77;;
52858;SDS011;38721;53.098;6.596;2023-02-22T02:02:34;37.20;;;18.63;;
52858;SDS011;38721;53.098;6.596;2023-02-22T02:05:01;40.88;;;19.25;;
52858;SDS011;38721;53.098;6.596;2023-02-22T02:07:35;44.93;;;20.77;;
52858;SDS011;38721;53.098;6.596;2023-02-22T02:10:03;45.10;;;21.08;;
52858;SDS011;38721;53.098;6.596;2023-02-22T02:12:39;44.35;;;20.67;;
52858;SDS011;38721;53.098;6.596;2023-02-22T02:15:17;42.13;;;19.90;;
52858;SDS011;38721;53.098;6.596;2023-02-22T02:17:49;46.22;;;20.83;;
52858;SDS011;38721;53.098;6.596;2023-02-22T02:39:59;47.15;;;22.13;;
52858;SDS011;38721;53.098;6.596;2023-02-22T02:43:34;48.33;;;21.92;;
52858;SDS011;38721;53.098;6.596;2023-02-22T02:45:53;49.67;;;22.92;;
52858;SDS011;38721;53.098;6.596;2023-02-22T02:48:30;45.53;;;22.67;;
52858;SDS011;38721;53.098;6.596;2023-02-22T02:50:59;44.20;;;22.17;;
52858;SDS011;38721;53.098;6.596;2023-02-22T02:53:31;49.92;;;23.30;;
52858;SDS011;38721;53.098;6.596;2023-02-22T02:56:01;45.22;;;22.63;;
52858;SDS011;38721;53.098;6.596;2023-02-22T02:58:27;50.13;;;23.77;;
52858;SDS011;38721;53.098;6.596;2023-02-22T03:00:53;46.92;;;21.98;;
52858;SDS011;38721;53.098;6.596;2023-02-22T03:06:09;47.47;;;21.95;;
52858;SDS011;38721;53.098;6.596;2023-02-22T03:11:53;48.50;;;22.48;;
52858;SDS011;38721;53.098;6.596;2023-02-22T03:14:41;50.95;;;23.40;;
52858;SDS011;38721;53.098;6.596;2023-02-22T03:17:46;50.30;;;22.50;;
52858;SDS011;38721;53.098;6.596;2023-02-22T03:23:16;53.08;;;24.23;;
52858;SDS011;38721;53.098;6.596;2023-02-22T03:25:55;53.15;;;23.48;;
52858;SDS011;38721;53.098;6.596;2023-02-22T03:28:30;57.45;;;24.33;;
52858;SDS011;38721;53.098;6.596;2023-02-22T03:30:59;52.15;;;23.83;;
52858;SDS011;38721;53.098;6.596;2023-02-22T03:33:32;54.47;;;23.33;;
52858;SDS011;38721;53.098;6.596;2023-02-22T03:36:13;54.00;;;23.70;;
52858;SDS011;38721;53.098;6.596;2023-02-22T03:38:49;53.10;;;23.25;;
52858;SDS011;38721;53.098;6.596;2023-02-22T03:41:28;49.85;;;23.00;;
52858;SDS011;38721;53.098;6.596;2023-02-22T03:44:03;58.28;;;23.05;;
52858;SDS011;38721;53.098;6.596;2023-02-22T03:46:36;58.50;;;24.10;;
52858;SDS011;38721;53.098;6.596;2023-02-22T03:49:16;53.38;;;23.33;;
52858;SDS011;38721;53.098;6.596;2023-02-22T03:51:56;54.13;;;23.50;;
52858;SDS011;38721;53.098;6.596;2023-02-22T03:54:35;60.70;;;24.65;;
52858;SDS011;38721;53.098;6.596;2023-02-22T03:57:05;53.03;;;23.80;;
52858;SDS011;38721;53.098;6.596;2023-02-22T03:59:39;53.80;;;25.02;;
52858;SDS011;38721;53.098;6.596;2023-02-22T04:02:05;57.10;;;23.40;;
52858;SDS011;38721;53.098;6.596;2023-02-22T04:04:30;59.88;;;25.83;;
52858;SDS011;38721;53.098;6.596;2023-02-22T04:06:56;68.30;;;25.67;;
52858;SDS011;38721;53.098;6.596;2023-02-22T04:09:22;51.08;;;23.13;;
52858;SDS011;38721;53.098;6.596;2023-02-22T04:11:47;59.40;;;25.00;;
52858;SDS011;38721;53.098;6.596;2023-02-22T04:14:13;58.70;;;26.50;;
52858;SDS011;38721;53.098;6.596;2023-02-22T04:16:39;59.15;;;25.65;;
52858;SDS011;38721;53.098;6.596;2023-02-22T04:19:04;54.50;;;25.65;;
52858;SDS011;38721;53.098;6.596;2023-02-22T04:21:30;51.00;;;24.50;;
52858;SDS011;38721;53.098;6.596;2023-02-22T04:23:57;68.38;;;27.42;;
52858;SDS011;38721;53.098;6.596;2023-02-22T04:26:23;61.92;;;24.54;;
52858;SDS011;38721;53.098;6.596;2023-02-22T04:28:49;61.55;;;25.77;;
52858;SDS011;38721;53.098;6.596;2023-02-22T04:31:15;59.45;;;26.23;;
52858;SDS011;38721;53.098;6.596;2023-02-22T04:33:41;58.97;;;24.83;;
52858;SDS011;38721;53.098;6.596;2023-02-22T04:36:07;64.05;;;26.75;;
52858;SDS011;38721;53.098;6.596;2023-02-22T04:38:34;62.78;;;26.63;;
52858;SDS011;38721;53.098;6.596;2023-02-22T04:41:03;61.03;;;25.80;;
52858;SDS011;38721;53.098;6.596;2023-02-22T04:43:29;62.72;;;27.77;;
52858;SDS011;38721;53.098;6.596;2023-02-22T04:45:55;66.32;;;28.13;;
52858;SDS011;38721;53.098;6.596;2023-02-22T04:48:23;67.78;;;27.85;;
52858;SDS011;38721;53.098;6.596;2023-02-22T04:50:51;67.43;;;27.33;;
52858;SDS011;38721;53.098;6.596;2023-02-22T04:53:17;73.07;;;28.15;;
52858;SDS011;38721;53.098;6.596;2023-02-22T04:55:43;63.90;;;26.85;;
52858;SDS011;38721;53.098;6.596;2023-02-22T04:58:09;67.10;;;28.60;;
52858;SDS011;38721;53.098;6.596;2023-02-22T05:00:34;58.15;;;27.23;;
52858;SDS011;38721;53.098;6.596;2023-02-22T05:03:03;70.85;;;28.58;;
52858;SDS011;38721;53.098;6.596;2023-02-22T05:05:29;79.35;;;30.80;;
52858;SDS011;38721;53.098;6.596;2023-02-22T05:07:54;72.00;;;29.33;;
52858;SDS011;38721;53.098;6.596;2023-02-22T05:10:20;76.95;;;30.05;;
52858;SDS011;38721;53.098;6.596;2023-02-22T05:12:46;77.53;;;30.75;;
52858;SDS011;38721;53.098;6.596;2023-02-22T05:15:15;68.22;;;30.45;;
52858;SDS011;38721;53.098;6.596;2023-02-22T05:17:42;79.30;;;31.23;;
52858;SDS011;38721;53.098;6.596;2023-02-22T05:20:09;78.18;;;31.55;;
52858;SDS011;38721;53.098;6.596;2023-02-22T05:22:58;77.30;;;31.73;;
52858;SDS011;38721;53.098;6.596;2023-02-22T05:25:27;76.57;;;31.92;;
52858;SDS011;38721;53.098;6.596;2023-02-22T05:27:56;72.80;;;31.83;;
52858;SDS011;38721;53.098;6.596;2023-02-22T05:30:29;73.68;;;31.80;;
52858;SDS011;38721;53.098;6.596;2023-02-22T05:32:56;73.30;;;31.77;;
52858;SDS011;38721;53.098;6.596;2023-02-22T05:35:23;75.60;;;31.48;;
52858;SDS011;38721;53.098;6.596;2023-02-22T05:37:50;75.30;;;31.50;;
52858;SDS011;38721;53.098;6.596;2023-02-22T05:40:16;78.50;;;33.38;;
52858;SDS011;38721;53.098;6.596;2023-02-22T05:42:47;78.75;;;32.75;;
52858;SDS011;38721;53.098;6.596;2023-02-22T05:45:13;86.28;;;34.55;;
52858;SDS011;38721;53.098;6.596;2023-02-22T05:47:40;76.55;;;31.15;;
52858;SDS011;38721;53.098;6.596;2023-02-22T05:50:06;85.07;;;35.05;;
52858;SDS011;38721;53.098;6.596;2023-02-22T05:52:40;81.00;;;34.55;;
52858;SDS011;38721;53.098;6.596;2023-02-22T05:55:06;94.22;;;36.22;;
52858;SDS011;38721;53.098;6.596;2023-02-22T05:57:33;79.85;;;33.92;;
52858;SDS011;38721;53.098;6.596;2023-02-22T05:59:59;88.13;;;35.97;;
52858;SDS011;38721;53.098;6.596;2023-02-22T06:02:28;87.35;;;34.45;;
52858;SDS011;38721;53.098;6.596;2023-02-22T06:04:54;80.70;;;33.67;;
52858;SDS011;38721;53.098;6.596;2023-02-22T06:07:20;77.82;;;34.15;;
52858;SDS011;38721;53.098;6.596;2023-02-22T06:09:46;82.88;;;35.85;;
52858;SDS011;38721;53.098;6.596;2023-02-22T06:12:12;89.38;;;36.08;;
52858;SDS011;38721;53.098;6.596;2023-02-22T06:14:38;84.20;;;36.40;;
52858;SDS011;38721;53.098;6.596;2023-02-22T06:17:05;88.70;;;35.42;;
52858;SDS011;38721;53.098;6.596;2023-02-22T06:19:30;85.03;;;36.15;;
52858;SDS011;38721;53.098;6.596;2023-02-22T06:21:57;90.05;;;37.40;;
52858;SDS011;38721;53.098;6.596;2023-02-22T06:24:27;98.55;;;39.50;;
52858;SDS011;38721;53.098;6.596;2023-02-22T06:26:53;96.00;;;38.05;;
52858;SDS011;38721;53.098;6.596;2023-02-22T06:29:27;91.40;;;39.40;;
52858;SDS011;38721;53.098;6.596;2023-02-22T06:31:53;102.13;;;41.72;;
52858;SDS011;38721;53.098;6.596;2023-02-22T06:34:20;96.00;;;39.65;;
52858;SDS011;38721;53.098;6.596;2023-02-22T06:36:46;102.97;;;40.47;;
52858;SDS011;38721;53.098;6.596;2023-02-22T06:39:13;99.22;;;39.42;;
52858;SDS011;38721;53.098;6.596;2023-02-22T06:41:44;102.97;;;39.55;;
52858;SDS011;38721;53.098;6.596;2023-02-22T06:44:11;85.15;;;36.92;;
52858;SDS011;38721;53.098;6.596;2023-02-22T06:46:38;91.47;;;38.35;;
52858;SDS011;38721;53.098;6.596;2023-02-22T06:49:04;85.55;;;37.47;;
52858;SDS011;38721;53.098;6.596;2023-02-22T06:51:30;81.10;;;36.95;;
52858;SDS011;38721;53.098;6.596;2023-02-22T06:53:59;92.00;;;38.65;;
52858;SDS011;38721;53.098;6.596;2023-02-22T06:56:25;94.47;;;37.95;;
52858;SDS011;38721;53.098;6.596;2023-02-22T06:58:53;91.28;;;38.60;;
52858;SDS011;38721;53.098;6.596;2023-02-22T07:01:19;90.60;;;38.20;;
52858;SDS011;38721;53.098;6.596;2023-02-22T07:03:45;89.03;;;37.90;;
52858;SDS011;38721;53.098;6.596;2023-02-22T07:06:13;91.35;;;36.80;;
52858;SDS011;38721;53.098;6.596;2023-02-22T07:08:38;91.78;;;38.67;;
52858;SDS011;38721;53.098;6.596;2023-02-22T07:11:04;93.95;;;39.20;;
52858;SDS011;38721;53.098;6.596;2023-02-22T07:13:30;98.35;;;39.33;;
52858;SDS011;38721;53.098;6.596;2023-02-22T07:15:55;94.70;;;36.80;;
52858;SDS011;38721;53.098;6.596;2023-02-22T07:18:21;95.50;;;39.83;;
52858;SDS011;38721;53.098;6.596;2023-02-22T07:20:48;102.28;;;39.03;;
52858;SDS011;38721;53.098;6.596;2023-02-22T07:23:15;90.32;;;38.38;;
52858;SDS011;38721;53.098;6.596;2023-02-22T07:25:42;97.70;;;40.05;;
52858;SDS011;38721;53.098;6.596;2023-02-22T07:28:08;99.35;;;39.80;;
52858;SDS011;38721;53.098;6.596;2023-02-22T07:30:35;103.80;;;40.70;;
52858;SDS011;38721;53.098;6.596;2023-02-22T07:33:03;105.32;;;42.13;;
52858;SDS011;38721;53.098;6.596;2023-02-22T07:35:34;98.75;;;39.88;;
52858;SDS011;38721;53.098;6.596;2023-02-22T07:38:07;99.47;;;38.90;;
52858;SDS011;38721;53.098;6.596;2023-02-22T07:40:33;96.95;;;39.80;;
52858;SDS011;38721;53.098;6.596;2023-02-22T07:45:30;101.50;;;41.72;;
52858;SDS011;38721;53.098;6.596;2023-02-22T07:47:58;96.80;;;40.15;;
52858;SDS011;38721;53.098;6.596;2023-02-22T07:50:25;96.07;;;39.55;;
52858;SDS011;38721;53.098;6.596;2023-02-22T07:52:55;105.97;;;42.70;;
52858;SDS011;38721;53.098;6.596;2023-02-22T07:55:22;93.57;;;39.58;;
52858;SDS011;38721;53.098;6.596;2023-02-22T07:57:51;101.53;;;41.75;;
52858;SDS011;38721;53.098;6.596;2023-02-22T08:00:22;106.47;;;40.65;;
52858;SDS011;38721;53.098;6.596;2023-02-22T08:02:49;100.90;;;42.25;;
52858;SDS011;38721;53.098;6.596;2023-02-22T08:05:15;101.28;;;41.35;;
52858;SDS011;38721;53.098;6.596;2023-02-22T08:07:41;98.78;;;40.75;;
52858;SDS011;38721;53.098;6.596;2023-02-22T08:10:08;96.80;;;39.60;;
52858;SDS011;38721;53.098;6.596;2023-02-22T08:12:34;105.63;;;43.40;;
52858;SDS011;38721;53.098;6.596;2023-02-22T08:15:03;102.28;;;40.15;;
52858;SDS011;38721;53.098;6.596;2023-02-22T08:17:31;108.03;;;44.45;;
52858;SDS011;38721;53.098;6.596;2023-02-22T08:19:56;104.65;;;41.22;;
52858;SDS011;38721;53.098;6.596;2023-02-22T08:22:22;103.20;;;42.38;;
52858;SDS011;38721;53.098;6.596;2023-02-22T08:24:48;106.80;;;41.90;;
52858;SDS011;38721;53.098;6.596;2023-02-22T08:27:27;102.60;;;41.72;;
52858;SDS011;38721;53.098;6.596;2023-02-22T08:29:54;94.25;;;40.67;;
52858;SDS011;38721;53.098;6.596;2023-02-22T08:32:21;100.05;;;41.53;;
52858;SDS011;38721;53.098;6.596;2023-02-22T08:34:48;99.45;;;41.55;;
52858;SDS011;38721;53.098;6.596;2023-02-22T08:37:14;95.82;;;40.70;;
52858;SDS011;38721;53.098;6.596;2023-02-22T08:39:40;101.75;;;40.35;;
52858;SDS011;38721;53.098;6.596;2023-02-22T08:42:06;100.05;;;42.17;;
52858;SDS011;38721;53.098;6.596;2023-02-22T08:44:33;100.65;;;41.03;;
52858;SDS011;38721;53.098;6.596;2023-02-22T08:46:59;98.90;;;40.70;;
52858;SDS011;38721;53.098;6.596;2023-02-22T08:49:25;97.00;;;39.88;;
52858;SDS011;38721;53.098;6.596;2023-02-22T08:51:51;101.25;;;40.85;;
52858;SDS011;38721;53.098;6.596;2023-02-22T08:54:16;97.35;;;40.67;;
52858;SDS011;38721;53.098;6.596;2023-02-22T08:56:42;101.63;;;41.30;;
52858;SDS011;38721;53.098;6.596;2023-02-22T08:59:08;102.70;;;40.30;;
52858;SDS011;38721;53.098;6.596;2023-02-22T09:01:34;94.88;;;40.75;;
52858;SDS011;38721;53.098;6.596;2023-02-22T09:04:00;96.45;;;39.05;;
52858;SDS011;38721;53.098;6.596;2023-02-22T09:06:26;97.38;;;40.58;;
52858;SDS011;38721;53.098;6.596;2023-02-22T09:08:53;99.00;;;41.45;;
52858;SDS011;38721;53.098;6.596;2023-02-22T09:11:19;88.10;;;39.17;;
52858;SDS011;38721;53.098;6.596;2023-02-22T09:13:47;94.90;;;38.33;;
52858;SDS011;38721;53.098;6.596;2023-02-22T09:16:13;88.13;;;38.53;;
52858;SDS011;38721;53.098;6.596;2023-02-22T09:18:39;90.32;;;37.08;;
52858;SDS011;38721;53.098;6.596;2023-02-22T09:21:05;93.07;;;39.42;;
52858;SDS011;38721;53.098;6.596;2023-02-22T09:23:30;95.30;;;39.63;;
52858;SDS011;38721;53.098;6.596;2023-02-22T09:25:56;90.72;;;38.47;;
52858;SDS011;38721;53.098;6.596;2023-02-22T09:28:24;89.78;;;38.55;;
52858;SDS011;38721;53.098;6.596;2023-02-22T09:30:51;94.03;;;38.90;;
52858;SDS011;38721;53.098;6.596;2023-02-22T09:33:17;85.57;;;36.53;;
52858;SDS011;38721;53.098;6.596;2023-02-22T09:35:46;87.68;;;38.10;;
52858;SDS011;38721;53.098;6.596;2023-02-22T09:38:15;88.90;;;38.05;;
52858;SDS011;38721;53.098;6.596;2023-02-22T09:40:44;89.53;;;37.42;;
52858;SDS011;38721;53.098;6.596;2023-02-22T09:46:16;89.10;;;39.22;;
52858;SDS011;38721;53.098;6.596;2023-02-22T09:54:18;89.75;;;40.13;;
52858;SDS011;38721;53.098;6.596;2023-02-22T09:56:54;94.63;;;39.15;;
52858;SDS011;38721;53.098;6.596;2023-02-22T09:59:23;93.72;;;39.78;;
52858;SDS011;38721;53.098;6.596;2023-02-22T10:01:59;94.70;;;40.83;;
52858;SDS011;38721;53.098;6.596;2023-02-22T10:04:41;89.82;;;40.90;;
52858;SDS011;38721;53.098;6.596;2023-02-22T10:07:35;91.57;;;38.95;;
52858;SDS011;38721;53.098;6.596;2023-02-22T10:10:09;91.03;;;38.72;;
52858;SDS011;38721;53.098;6.596;2023-02-22T10:12:47;95.27;;;40.87;;
52858;SDS011;38721;53.098;6.596;2023-02-22T10:15:44;101.20;;;40.22;;
52858;SDS011;38721;53.098;6.596;2023-02-22T10:27:25;98.75;;;40.97;;
52858;SDS011;38721;53.098;6.596;2023-02-22T10:30:01;90.97;;;40.00;;
52858;SDS011;38721;53.098;6.596;2023-02-22T10:32:51;96.25;;;41.08;;
52858;SDS011;38721;53.098;6.596;2023-02-22T10:35:31;94.22;;;40.40;;
52858;SDS011;38721;53.098;6.596;2023-02-22T10:38:01;101.10;;;40.58;;
52858;SDS011;38721;53.098;6.596;2023-02-22T10:41:34;96.30;;;39.55;;
52858;SDS011;38721;53.098;6.596;2023-02-22T10:43:37;96.10;;;40.13;;
52858;SDS011;38721;53.098;6.596;2023-02-22T10:46:06;103.97;;;41.92;;
52858;SDS011;38721;53.098;6.596;2023-02-22T10:48:36;91.00;;;39.45;;
52858;SDS011;38721;53.098;6.596;2023-02-22T10:51:05;104.20;;;41.63;;
52858;SDS011;38721;53.098;6.596;2023-02-22T10:53:33;99.18;;;40.33;;
52858;SDS011;38721;53.098;6.596;2023-02-22T11:01:16;90.38;;;39.13;;
52858;SDS011;38721;53.098;6.596;2023-02-22T11:09:28;90.28;;;39.53;;
52858;SDS011;38721;53.098;6.596;2023-02-22T11:12:07;90.55;;;38.97;;
52858;SDS011;38721;53.098;6.596;2023-02-22T11:14:41;97.72;;;41.53;;
52858;SDS011;38721;53.098;6.596;2023-02-22T11:17:07;89.72;;;39.90;;
52858;SDS011;38721;53.098;6.596;2023-02-22T11:19:37;93.50;;;39.50;;
52858;SDS011;38721;53.098;6.596;2023-02-22T11:22:12;82.93;;;38.78;;
52858;SDS011;38721;53.098;6.596;2023-02-22T11:25:00;87.82;;;39.10;;
52858;SDS011;38721;53.098;6.596;2023-02-22T11:27:41;88.80;;;38.63;;
52858;SDS011;38721;53.098;6.596;2023-02-22T11:30:18;91.32;;;38.00;;
52858;SDS011;38721;53.098;6.596;2023-02-22T11:32:57;90.18;;;38.33;;
52858;SDS011;38721;53.098;6.596;2023-02-22T11:37:52;86.32;;;38.63;;
52858;SDS011;38721;53.098;6.596;2023-02-22T11:40:26;82.57;;;37.22;;
52858;SDS011;38721;53.098;6.596;2023-02-22T11:43:05;90.40;;;38.55;;
52858;SDS011;38721;53.098;6.596;2023-02-22T11:45:38;88.88;;;38.15;;
52858;SDS011;38721;53.098;6.596;2023-02-22T11:48:19;81.95;;;36.50;;
52858;SDS011;38721;53.098;6.596;2023-02-22T11:50:53;85.82;;;35.97;;
52858;SDS011;38721;53.098;6.596;2023-02-22T12:09:42;86.18;;;35.35;;
52858;SDS011;38721;53.098;6.596;2023-02-22T12:12:18;81.22;;;34.92;;
52858;SDS011;38721;53.098;6.596;2023-02-22T12:15:10;81.90;;;34.83;;
52858;SDS011;38721;53.098;6.596;2023-02-22T12:17:50;85.32;;;35.35;;
52858;SDS011;38721;53.098;6.596;2023-02-22T12:20:45;87.32;;;34.90;;
52858;SDS011;38721;53.098;6.596;2023-02-22T12:23:19;79.97;;;33.17;;
52858;SDS011;38721;53.098;6.596;2023-02-22T12:26:04;77.05;;;34.17;;
52858;SDS011;38721;53.098;6.596;2023-02-22T12:28:54;78.10;;;32.83;;
52858;SDS011;38721;53.098;6.596;2023-02-22T12:31:29;79.50;;;33.63;;
52858;SDS011;38721;53.098;6.596;2023-02-22T12:36:37;69.72;;;30.77;;
52858;SDS011;38721;53.098;6.596;2023-02-22T12:39:19;62.35;;;29.70;;
52858;SDS011;38721;53.098;6.596;2023-02-22T12:41:58;67.75;;;29.77;;
52858;SDS011;38721;53.098;6.596;2023-02-22T12:44:38;70.88;;;29.58;;
52858;SDS011;38721;53.098;6.596;2023-02-22T12:47:06;70.57;;;29.33;;
52858;SDS011;38721;53.098;6.596;2023-02-22T12:49:43;64.70;;;29.35;;
52858;SDS011;38721;53.098;6.596;2023-02-22T12:52:25;64.28;;;28.23;;
52858;SDS011;38721;53.098;6.596;2023-02-22T12:55:13;61.20;;;28.67;;
52858;SDS011;38721;53.098;6.596;2023-02-22T13:00:34;62.03;;;28.67;;
52858;SDS011;38721;53.098;6.596;2023-02-22T13:03:29;68.20;;;30.52;;
52858;SDS011;38721;53.098;6.596;2023-02-22T13:06:10;63.20;;;28.83;;
52858;SDS011;38721;53.098;6.596;2023-02-22T13:08:43;70.43;;;29.88;;
52858;SDS011;38721;53.098;6.596;2023-02-22T13:16:58;64.32;;;28.15;;
52858;SDS011;38721;53.098;6.596;2023-02-22T13:20:07;69.35;;;28.85;;
52858;SDS011;38721;53.098;6.596;2023-02-22T13:28:05;66.63;;;28.05;;
52858;SDS011;38721;53.098;6.596;2023-02-22T13:31:11;60.08;;;27.02;;
52858;SDS011;38721;53.098;6.596;2023-02-22T13:36:50;64.60;;;28.80;;
52858;SDS011;38721;53.098;6.596;2023-02-22T13:39:33;58.85;;;28.55;;
52858;SDS011;38721;53.098;6.596;2023-02-22T13:42:12;58.63;;;27.73;;
52858;SDS011;38721;53.098;6.596;2023-02-22T13:52:30;56.72;;;27.48;;
52858;SDS011;38721;53.098;6.596;2023-02-22T13:55:02;57.83;;;27.23;;
52858;SDS011;38721;53.098;6.596;2023-02-22T13:57:39;58.03;;;27.30;;
52858;SDS011;38721;53.098;6.596;2023-02-22T14:02:57;58.58;;;28.05;;
52858;SDS011;38721;53.098;6.596;2023-02-22T14:13:13;60.47;;;27.10;;
52858;SDS011;38721;53.098;6.596;2023-02-22T14:18:30;63.22;;;29.23;;
52858;SDS011;38721;53.098;6.596;2023-02-22T14:21:13;66.57;;;29.60;;
52858;SDS011;38721;53.098;6.596;2023-02-22T14:23:41;64.85;;;29.50;;
52858;SDS011;38721;53.098;6.596;2023-02-22T14:42:05;61.45;;;28.33;;
52858;SDS011;38721;53.098;6.596;2023-02-22T14:47:14;65.10;;;28.55;;
52858;SDS011;38721;53.098;6.596;2023-02-22T14:49:52;64.07;;;28.08;;
52858;SDS011;38721;53.098;6.596;2023-02-22T14:52:26;60.83;;;28.90;;
52858;SDS011;38721;53.098;6.596;2023-02-22T14:55:00;59.65;;;27.70;;
52858;SDS011;38721;53.098;6.596;2023-02-22T15:00:38;64.78;;;28.25;;
52858;SDS011;38721;53.098;6.596;2023-02-22T15:06:20;58.42;;;27.60;;
52858;SDS011;38721;53.098;6.596;2023-02-22T15:08:48;63.55;;;29.15;;
52858;SDS011;38721;53.098;6.596;2023-02-22T15:11:37;66.13;;;28.75;;
52858;SDS011;38721;53.098;6.596;2023-02-22T15:14:11;64.82;;;28.77;;
52858;SDS011;38721;53.098;6.596;2023-02-22T15:17:22;66.15;;;29.40;;
52858;SDS011;38721;53.098;6.596;2023-02-22T15:19:50;68.07;;;31.27;;
52858;SDS011;38721;53.098;6.596;2023-02-22T15:22:28;66.03;;;29.38;;
52858;SDS011;38721;53.098;6.596;2023-02-22T15:25:00;67.60;;;29.98;;
52858;SDS011;38721;53.098;6.596;2023-02-22T15:27:29;69.68;;;29.60;;
52858;SDS011;38721;53.098;6.596;2023-02-22T15:30:00;63.95;;;30.17;;
52858;SDS011;38721;53.098;6.596;2023-02-22T15:32:42;65.20;;;28.60;;
52858;SDS011;38721;53.098;6.596;2023-02-22T15:37:36;69.18;;;30.02;;
52858;SDS011;38721;53.098;6.596;2023-02-22T15:40:07;62.08;;;28.63;;
52858;SDS011;38721;53.098;6.596;2023-02-22T15:42:51;61.25;;;28.42;;
52858;SDS011;38721;53.098;6.596;2023-02-22T15:45:19;62.72;;;29.40;;
52858;SDS011;38721;53.098;6.596;2023-02-22T15:47:50;67.03;;;28.95;;
52858;SDS011;38721;53.098;6.596;2023-02-22T15:50:25;62.50;;;28.45;;
52858;SDS011;38721;53.098;6.596;2023-02-22T15:53:07;59.63;;;27.85;;
52858;SDS011;38721;53.098;6.596;2023-02-22T15:55:54;65.43;;;29.13;;
52858;SDS011;38721;53.098;6.596;2023-02-22T15:58:23;62.22;;;29.42;;
52858;SDS011;38721;53.098;6.596;2023-02-22T16:00:59;60.15;;;29.13;;
52858;SDS011;38721;53.098;6.596;2023-02-22T16:06:06;64.27;;;28.93;;
52858;SDS011;38721;53.098;6.596;2023-02-22T16:08:35;59.22;;;28.30;;
52858;SDS011;38721;53.098;6.596;2023-02-22T16:11:19;55.15;;;28.00;;
52858;SDS011;38721;53.098;6.596;2023-02-22T16:13:54;57.85;;;28.30;;
52858;SDS011;38721;53.098;6.596;2023-02-22T16:16:27;60.83;;;29.20;;
52858;SDS011;38721;53.098;6.596;2023-02-22T16:21:51;57.47;;;27.40;;
52858;SDS011;38721;53.098;6.596;2023-02-22T16:24:25;55.88;;;27.35;;
52858;SDS011;38721;53.098;6.596;2023-02-22T16:29:36;54.53;;;27.42;;
52858;SDS011;38721;53.098;6.596;2023-02-22T16:32:02;54.72;;;26.60;;
52858;SDS011;38721;53.098;6.596;2023-02-22T16:34:28;58.05;;;28.05;;
52858;SDS011;38721;53.098;6.596;2023-02-22T16:36:54;53.33;;;26.98;;
52858;SDS011;38721;53.098;6.596;2023-02-22T16:41:53;61.55;;;28.15;;
52858;SDS011;38721;53.098;6.596;2023-02-22T16:44:21;53.58;;;26.10;;
52858;SDS011;38721;53.098;6.596;2023-02-22T16:46:55;53.85;;;27.02;;
52858;SDS011;38721;53.098;6.596;2023-02-22T16:49:22;52.47;;;26.98;;
52858;SDS011;38721;53.098;6.596;2023-02-22T16:51:51;55.17;;;27.80;;
52858;SDS011;38721;53.098;6.596;2023-02-22T16:54:42;59.08;;;27.63;;
52858;SDS011;38721;53.098;6.596;2023-02-22T16:57:15;56.80;;;27.90;;
52858;SDS011;38721;53.098;6.596;2023-02-22T16:59:44;54.15;;;26.48;;
52858;SDS011;38721;53.098;6.596;2023-02-22T17:02:14;52.30;;;26.60;;
52858;SDS011;38721;53.098;6.596;2023-02-22T17:04:40;56.00;;;27.45;;
52858;SDS011;38721;53.098;6.596;2023-02-22T17:07:08;53.00;;;26.83;;
52858;SDS011;38721;53.098;6.596;2023-02-22T17:09:34;49.78;;;26.17;;
52858;SDS011;38721;53.098;6.596;2023-02-22T17:12:00;51.55;;;26.35;;
52858;SDS011;38721;53.098;6.596;2023-02-22T17:14:28;50.13;;;27.65;;
52858;SDS011;38721;53.098;6.596;2023-02-22T17:16:57;50.97;;;26.42;;
52858;SDS011;38721;53.098;6.596;2023-02-22T17:19:24;54.42;;;27.73;;
52858;SDS011;38721;53.098;6.596;2023-02-22T17:21:50;51.55;;;26.55;;